createdAt,value
2019-04-23T00:01:46.994Z,18.40
2019-04-23T00:04:10.113Z,18.40
2019-04-23T00:06:47.727Z,18.40
2019-04-23T00:09:21.198Z,18.40
2019-04-23T00:11:56.000Z,18.30
2019-04-23T00:14:29.943Z,18.30
2019-04-23T00:16:57.869Z,18.30
2019-04-23T00:19:30.995Z,18.20
2019-04-23T00:22:28.888Z,18.20
2019-04-23T00:25:41.673Z,18.20
2019-04-23T00:27:37.225Z,18.10
2019-04-23T00:30:18.928Z,18.10
2019-04-23T00:32:39.266Z,18.10
2019-04-23T00:35:12.391Z,18.10
2019-04-23T00:37:56.815Z,18.10
2019-04-23T00:40:30.326Z,18.10
2019-04-23T00:42:53.296Z,18.00
2019-04-23T00:45:32.843Z,18.00
2019-04-23T00:48:01.752Z,18.00
2019-04-23T00:50:48.257Z,18.00
2019-04-23T00:55:47.657Z,18.00
2019-04-23T01:00:55.727Z,17.90
2019-04-23T01:03:39.471Z,17.90
2019-04-23T01:06:05.010Z,17.90
2019-04-23T01:08:50.686Z,17.80
2019-04-23T01:11:13.339Z,17.80
2019-04-23T01:13:48.963Z,17.80
2019-04-23T01:16:32.847Z,17.80
2019-04-23T01:19:28.019Z,17.80
2019-04-23T01:21:28.619Z,17.80
2019-04-23T01:24:15.844Z,17.80
2019-04-23T01:30:38.852Z,17.80
2019-04-23T01:33:10.792Z,17.80
2019-04-23T01:35:43.197Z,17.80
2019-04-23T01:37:58.172Z,17.80
2019-04-23T01:40:39.391Z,17.80
2019-04-23T01:43:08.742Z,17.80
2019-04-23T01:45:34.215Z,17.80
2019-04-23T01:48:16.090Z,17.80
2019-04-23T01:56:01.329Z,17.70
2019-04-23T01:58:38.497Z,17.70
2019-04-23T02:01:06.513Z,17.70
2019-04-23T02:03:44.688Z,17.70
2019-04-23T02:08:52.152Z,17.70
2019-04-23T02:11:25.613Z,17.70
2019-04-23T02:21:47.601Z,17.60
2019-04-23T02:24:18.332Z,17.60
2019-04-23T02:26:48.595Z,17.60
2019-04-23T02:29:41.673Z,17.60
2019-04-23T02:37:22.444Z,17.60
2019-04-23T02:42:43.286Z,17.60
2019-04-23T02:44:53.957Z,17.50
2019-04-23T02:47:36.540Z,17.50
2019-04-23T02:52:37.062Z,17.40
2019-04-23T02:57:44.102Z,17.40
2019-04-23T03:03:08.004Z,17.40
2019-04-23T03:05:26.430Z,17.40
2019-04-23T03:08:00.033Z,17.40
2019-04-23T03:10:44.843Z,17.40
2019-04-23T03:21:42.591Z,17.40
2019-04-23T03:33:03.539Z,17.30
2019-04-23T03:37:23.229Z,17.20
2019-04-23T03:45:07.729Z,17.20
2019-04-23T03:47:48.133Z,17.10
2019-04-23T03:55:21.050Z,17.10
2019-04-23T03:57:43.476Z,17.10
2019-04-23T04:04:01.686Z,17.10
2019-04-23T04:08:13.898Z,17.00
2019-04-23T04:13:15.114Z,17.00
2019-04-23T04:15:57.107Z,16.90
2019-04-23T04:23:33.316Z,16.90
2019-04-23T04:26:06.982Z,16.90
2019-04-23T04:28:48.513Z,16.90
2019-04-23T04:31:34.644Z,16.90
2019-04-23T04:34:01.111Z,16.90
2019-04-23T04:36:21.767Z,16.90
2019-04-23T04:44:28.981Z,16.90
2019-04-23T04:49:17.002Z,16.90
2019-04-23T04:51:49.916Z,16.90
2019-04-23T04:56:56.555Z,16.90
2019-04-23T04:59:22.619Z,16.90
2019-04-23T05:04:37.443Z,16.90
2019-04-23T05:07:10.846Z,16.90
2019-04-23T05:09:48.602Z,17.00
2019-04-23T05:14:52.495Z,17.00
2019-04-23T05:20:13.200Z,16.90
2019-04-23T05:22:59.839Z,16.90
2019-04-23T05:25:17.638Z,16.90
2019-04-23T05:28:02.701Z,17.00
2019-04-23T05:30:32.949Z,17.00
2019-04-23T05:33:07.670Z,17.00
2019-04-23T05:36:04.879Z,17.10
2019-04-23T05:40:45.292Z,17.10
2019-04-23T05:43:32.408Z,17.20
2019-04-23T05:45:46.640Z,17.20
2019-04-23T05:53:33.453Z,17.30
2019-04-23T05:56:03.589Z,17.30
2019-04-23T05:58:40.334Z,17.30
2019-04-23T06:01:42.262Z,17.30
2019-04-23T06:04:08.813Z,17.30
2019-04-23T06:06:37.519Z,17.30
2019-04-23T06:09:12.746Z,17.40
2019-04-23T06:11:47.044Z,17.40
2019-04-23T06:14:12.089Z,17.40
2019-04-23T06:24:29.008Z,17.50
2019-04-23T06:27:05.091Z,17.60
2019-04-23T06:29:35.464Z,17.60
2019-04-23T06:32:06.403Z,17.60
2019-04-23T06:34:45.563Z,17.70
2019-04-23T06:37:18.366Z,17.80
2019-04-23T06:39:50.361Z,17.80
2019-04-23T06:42:23.407Z,17.90
2019-04-23T06:45:01.283Z,18.00
2019-04-23T06:47:30.437Z,18.10
2019-04-23T06:50:07.559Z,18.10
2019-04-23T06:52:31.847Z,18.20
2019-04-23T06:55:36.029Z,18.20
2019-04-23T06:57:51.658Z,18.30
2019-04-23T07:00:29.431Z,18.40
2019-04-23T07:02:59.807Z,18.50
2019-04-23T07:06:03.458Z,18.60
2019-04-23T07:08:39.840Z,18.70
2019-04-23T07:11:09.632Z,18.80
2019-04-23T07:13:45.001Z,18.90
2019-04-23T07:16:12.752Z,19.00
2019-04-23T07:18:41.300Z,19.10
2019-04-23T07:24:00.861Z,19.30
2019-04-23T07:29:04.990Z,19.50
2019-04-23T07:31:37.973Z,19.60
2019-04-23T07:34:08.458Z,19.60
2019-04-23T07:36:42.395Z,19.70
2019-04-23T07:42:18.410Z,19.90
2019-04-23T07:45:09.484Z,19.90
2019-04-23T07:48:28.860Z,20.00
2019-04-23T07:50:55.252Z,20.00
2019-04-23T07:53:35.886Z,20.00
2019-04-23T07:58:48.032Z,20.10
2019-04-23T08:01:13.729Z,20.20
2019-04-23T08:03:45.081Z,20.30
2019-04-23T08:06:31.471Z,20.30
2019-04-23T08:08:50.859Z,20.30
2019-04-23T08:11:42.650Z,20.30
2019-04-23T08:14:00.460Z,20.30
2019-04-23T08:16:34.342Z,20.40
2019-04-23T08:19:25.311Z,20.50
2019-04-23T08:21:40.014Z,20.60
2019-04-23T08:24:50.595Z,20.70
2019-04-23T08:27:31.059Z,20.70
2019-04-23T08:30:00.545Z,20.90
2019-04-23T08:32:27.956Z,20.90
2019-04-23T08:35:10.947Z,20.90
2019-04-23T08:40:19.933Z,21.00
2019-04-23T08:42:52.740Z,21.10
2019-04-23T08:45:29.759Z,21.10
2019-04-23T08:53:37.557Z,21.20
2019-04-23T08:58:43.534Z,21.20
2019-04-23T09:01:06.305Z,21.20
2019-04-23T09:03:34.434Z,21.20
2019-04-23T09:06:14.051Z,21.20
2019-04-23T09:08:43.702Z,21.20
2019-04-23T09:11:40.379Z,21.30
2019-04-23T09:16:28.410Z,21.40
2019-04-23T09:19:11.148Z,21.30
2019-04-23T09:21:33.003Z,21.40
2019-04-23T09:24:04.239Z,21.40
2019-04-23T09:26:45.314Z,21.30
2019-04-23T09:29:28.022Z,21.30
2019-04-23T09:35:05.928Z,21.30
2019-04-23T09:41:07.000Z,21.40
2019-04-23T09:43:51.480Z,21.50
2019-04-23T09:46:23.547Z,21.50
2019-04-23T09:49:07.534Z,21.60
2019-04-23T09:51:42.166Z,21.70
2019-04-23T09:54:09.562Z,21.70
2019-04-23T09:59:25.943Z,21.70
2019-04-23T10:01:45.150Z,21.80
2019-04-23T10:04:17.580Z,21.80
2019-04-23T10:06:45.183Z,21.80
2019-04-23T10:09:16.658Z,21.80
2019-04-23T10:11:51.062Z,21.80
2019-04-23T10:14:24.148Z,21.80
2019-04-23T10:17:00.022Z,21.80
2019-04-23T10:19:32.914Z,21.90
2019-04-23T10:22:05.194Z,21.90
2019-04-23T10:24:39.077Z,22.00
2019-04-23T10:27:11.764Z,22.10
2019-04-23T10:29:43.768Z,22.10
2019-04-23T10:32:15.932Z,22.10
2019-04-23T10:34:57.826Z,22.20
2019-04-23T10:37:34.119Z,22.30
2019-04-23T10:40:00.445Z,22.30
2019-04-23T10:42:32.021Z,22.40
2019-04-23T10:45:31.601Z,22.40
2019-04-23T10:49:00.627Z,22.50
2019-04-23T10:56:45.013Z,22.60
2019-04-23T10:59:40.263Z,22.50
2019-04-23T11:12:44.562Z,22.50
2019-04-23T11:15:32.479Z,22.50
2019-04-23T11:17:59.547Z,22.60
2019-04-23T11:20:34.104Z,22.60
2019-04-23T11:23:01.422Z,22.60
2019-04-23T11:28:22.653Z,22.60
2019-04-23T11:30:55.316Z,22.60
2019-04-23T11:33:40.296Z,22.60
2019-04-23T11:36:35.781Z,22.60
2019-04-23T11:38:56.087Z,22.60
2019-04-23T11:41:31.001Z,22.60
2019-04-23T11:43:49.051Z,22.70
2019-04-23T11:46:39.990Z,22.70
2019-04-23T11:51:46.051Z,22.90
2019-04-23T11:54:10.285Z,23.00
2019-04-23T11:57:13.061Z,23.10
2019-04-23T11:59:28.405Z,23.10
2019-04-23T12:02:17.043Z,23.20
2019-04-23T12:05:09.285Z,23.20
2019-04-23T12:07:46.928Z,23.20
2019-04-23T12:13:14.884Z,23.10
2019-04-23T12:15:46.128Z,23.10
2019-04-23T12:18:17.042Z,23.00
2019-04-23T12:21:15.070Z,23.00
2019-04-23T12:26:31.401Z,23.00
2019-04-23T12:28:52.999Z,23.10
2019-04-23T12:31:26.409Z,23.10
2019-04-23T12:33:57.321Z,23.10
2019-04-23T12:36:45.562Z,23.20
2019-04-23T12:39:30.451Z,23.30
2019-04-23T12:42:01.750Z,23.30
2019-04-23T12:44:38.606Z,23.30
2019-04-23T12:47:21.070Z,23.40
2019-04-23T12:52:19.603Z,23.30
2019-04-23T12:54:58.896Z,23.30
2019-04-23T12:59:56.946Z,23.20
2019-04-23T13:05:00.287Z,23.10
2019-04-23T13:07:38.649Z,23.10
2019-04-23T13:10:15.884Z,23.00
2019-04-23T13:15:15.831Z,22.90
2019-04-23T13:18:11.338Z,22.90
2019-04-23T13:23:01.572Z,22.90
2019-04-23T13:25:47.372Z,22.90
2019-04-23T13:28:12.984Z,22.90
2019-04-23T13:30:56.565Z,22.80
2019-04-23T13:36:01.637Z,22.80
2019-04-23T13:41:08.417Z,22.80
2019-04-23T13:48:38.289Z,22.70
2019-04-23T13:51:22.736Z,22.60
2019-04-23T14:04:36.976Z,22.50
2019-04-23T14:06:57.990Z,22.50
2019-04-23T14:12:13.592Z,22.40
2019-04-23T14:17:23.732Z,22.40
2019-04-23T14:19:45.723Z,22.40
2019-04-23T14:22:43.428Z,22.30
2019-04-23T14:30:11.078Z,22.30
2019-04-23T14:32:46.878Z,22.30
2019-04-23T14:35:11.427Z,22.30
2019-04-23T14:37:59.186Z,22.30
2019-04-23T14:40:22.207Z,22.30
2019-04-23T14:45:46.799Z,22.30
2019-04-23T14:53:18.369Z,22.30
2019-04-23T14:56:07.536Z,22.30
2019-04-23T15:01:07.584Z,22.30
2019-04-23T15:03:35.406Z,22.40
2019-04-23T15:06:12.066Z,22.40
2019-04-23T15:08:39.775Z,22.40
2019-04-23T15:11:21.311Z,22.40
2019-04-23T15:13:46.834Z,22.40
2019-04-23T15:19:20.015Z,22.40
2019-04-23T15:21:59.501Z,22.40
2019-04-23T15:24:23.011Z,22.50
2019-04-23T15:29:06.073Z,22.50
2019-04-23T15:31:58.928Z,22.50
2019-04-23T15:37:13.420Z,22.40
2019-04-23T15:39:33.215Z,22.40
2019-04-23T15:42:11.008Z,22.40
2019-04-23T15:44:32.834Z,22.40
2019-04-23T15:47:20.195Z,22.40
2019-04-23T15:49:51.368Z,22.30
2019-04-23T15:52:27.920Z,22.30
2019-04-23T15:54:56.943Z,22.30
2019-04-23T15:57:42.732Z,22.20
2019-04-23T16:00:00.063Z,22.30
2019-04-23T16:02:03.946Z,22.20
2019-04-23T16:04:35.735Z,22.20
2019-04-23T16:07:08.505Z,22.20
2019-04-23T16:12:41.991Z,22.20
2019-04-23T16:15:13.313Z,22.20
2019-04-23T16:18:08.180Z,22.10
2019-04-23T16:20:54.592Z,22.10
2019-04-23T16:23:13.864Z,22.00
2019-04-23T16:25:42.019Z,22.10
2019-04-23T16:28:19.292Z,22.00
2019-04-23T16:30:58.751Z,22.00
2019-04-23T16:33:16.974Z,22.00
2019-04-23T16:38:38.983Z,21.90
2019-04-23T16:41:12.843Z,21.80
2019-04-23T16:43:50.479Z,21.80
2019-04-23T16:46:21.939Z,21.70
2019-04-23T16:49:03.222Z,21.70
2019-04-23T16:51:24.582Z,21.60
2019-04-23T16:54:05.516Z,21.60
2019-04-23T16:56:52.077Z,21.50
2019-04-23T16:59:08.443Z,21.50
2019-04-23T17:01:34.517Z,21.50
2019-04-23T17:04:19.510Z,21.40
2019-04-23T17:06:49.151Z,21.40
2019-04-23T17:09:22.072Z,21.40
2019-04-23T17:12:01.569Z,21.30
2019-04-23T17:14:21.099Z,21.30
2019-04-23T17:16:49.894Z,21.20
2019-04-23T17:19:27.943Z,21.20
2019-04-23T17:22:06.289Z,21.10
2019-04-23T17:24:30.535Z,21.10
2019-04-23T17:29:41.835Z,21.00
2019-04-23T17:32:14.917Z,20.90
2019-04-23T17:35:17.513Z,20.90
2019-04-23T17:37:55.897Z,20.90
2019-04-23T17:40:39.683Z,20.80
2019-04-23T17:43:04.973Z,20.80
2019-04-23T17:48:29.672Z,20.70
2019-04-23T17:51:11.363Z,20.60
2019-04-23T17:53:52.151Z,20.50
2019-04-23T17:56:35.866Z,20.50
2019-04-23T17:59:04.121Z,20.50
2019-04-23T18:04:03.067Z,20.40
2019-04-23T18:06:37.704Z,20.40
2019-04-23T18:09:12.821Z,20.40
2019-04-23T18:11:49.966Z,20.40
2019-04-23T18:14:08.484Z,20.40
2019-04-23T18:16:51.855Z,20.40
2019-04-23T18:25:04.382Z,20.40
2019-04-23T18:27:33.103Z,20.40
2019-04-23T18:30:19.923Z,20.30
2019-04-23T18:35:44.592Z,20.20
2019-04-23T18:38:29.168Z,20.10
2019-04-23T18:41:02.599Z,20.10
2019-04-23T18:43:29.755Z,20.10
2019-04-23T18:48:45.598Z,20.00
2019-04-23T18:58:54.721Z,19.60
2019-04-23T19:01:27.957Z,19.60
2019-04-23T19:04:17.185Z,19.60
2019-04-23T19:06:37.839Z,19.60
2019-04-23T19:12:19.401Z,19.50
2019-04-23T19:15:04.140Z,19.50
2019-04-23T19:17:43.694Z,19.50
2019-04-23T19:22:32.687Z,19.50
2019-04-23T19:25:02.247Z,19.40
2019-04-23T19:27:37.011Z,19.40
2019-04-23T19:30:13.511Z,19.30
2019-04-23T19:32:48.844Z,19.30
2019-04-23T19:35:33.546Z,19.30
2019-04-23T19:37:55.617Z,19.30
2019-04-23T19:40:33.636Z,19.30
2019-04-23T19:42:58.867Z,19.20
2019-04-23T19:45:40.452Z,19.20
2019-04-23T19:48:13.461Z,19.20
2019-04-23T19:50:48.978Z,19.20
2019-04-23T19:56:02.117Z,19.20
2019-04-23T19:58:25.661Z,19.20
2019-04-23T20:06:05.936Z,19.20
2019-04-23T20:08:49.436Z,19.10
2019-04-23T20:11:04.518Z,19.10
2019-04-23T20:13:49.895Z,19.10
2019-04-23T20:16:26.006Z,19.10
2019-04-23T20:18:50.484Z,19.00
2019-04-23T20:21:13.234Z,19.00
2019-04-23T20:24:04.380Z,18.90
2019-04-23T20:26:37.433Z,18.90
2019-04-23T20:44:47.551Z,18.70
2019-04-23T20:47:18.606Z,18.70
2019-04-23T20:52:10.327Z,18.60
2019-04-23T20:57:43.903Z,18.50
2019-04-23T21:00:42.931Z,18.50
2019-04-23T21:03:18.184Z,18.50
2019-04-23T21:05:24.223Z,18.40
2019-04-23T21:13:30.323Z,18.30
2019-04-23T21:18:22.058Z,18.30
2019-04-23T21:20:57.938Z,18.20
2019-04-23T21:23:38.395Z,18.30
2019-04-23T21:25:57.124Z,18.20
2019-04-23T21:31:11.578Z,18.20
2019-04-23T21:33:59.286Z,18.20
2019-04-23T21:39:40.667Z,18.20
2019-04-23T21:44:35.591Z,18.10
2019-04-23T21:47:04.691Z,18.10
2019-04-23T21:49:48.446Z,18.10
2019-04-23T21:52:17.618Z,18.10
2019-04-23T21:57:27.187Z,18.10
2019-04-23T22:02:31.920Z,18.00
2019-04-23T22:05:01.118Z,18.00
2019-04-23T22:07:35.966Z,18.00
2019-04-23T22:10:02.706Z,18.00
2019-04-23T22:12:52.745Z,17.90
2019-04-23T22:15:12.804Z,17.90
2019-04-23T22:17:44.821Z,17.90
2019-04-23T22:20:26.143Z,17.90
2019-04-23T22:25:37.338Z,17.80
2019-04-23T22:27:58.180Z,17.80
2019-04-23T22:31:01.325Z,17.80
2019-04-23T22:33:09.878Z,17.80
2019-04-23T22:35:53.539Z,17.70
2019-04-23T22:40:56.326Z,17.70
2019-04-23T22:48:47.833Z,17.60
2019-04-23T22:51:21.388Z,17.50
2019-04-23T22:53:55.199Z,17.50
2019-04-23T22:56:19.699Z,17.50
2019-04-23T22:59:01.489Z,17.50
2019-04-23T23:01:26.217Z,17.50
2019-04-23T23:04:04.995Z,17.40
2019-04-23T23:09:20.958Z,17.40
2019-04-23T23:11:49.777Z,17.40
2019-04-23T23:16:53.243Z,17.30
2019-04-23T23:19:29.882Z,17.40
2019-04-23T23:22:16.847Z,17.40
2019-04-23T23:24:25.398Z,17.40
2019-04-23T23:27:10.316Z,17.40
2019-04-23T23:29:42.638Z,17.40
2019-04-23T23:32:19.097Z,17.50
2019-04-23T23:35:04.340Z,17.50
2019-04-23T23:39:56.958Z,17.50
2019-04-23T23:42:26.552Z,17.50
2019-04-23T23:45:12.887Z,17.50
2019-04-23T23:47:30.066Z,17.40
2019-04-23T23:50:17.864Z,17.40
2019-04-23T23:52:48.778Z,17.40
2019-04-23T23:55:16.742Z,17.40
2019-04-23T23:57:50.953Z,17.40
